sensor_id;sensor_type;location;lat;lon;timestamp;pressure;altitude;pressure_sealevel;temperature;humidity
3178;BME280;38141;42.666;23.344;2023-04-03T00:01:35;94052.78;;;8.72;100.00
3178;BME280;38141;42.666;23.344;2023-04-03T00:04:03;94041.22;;;8.68;100.00
3178;BME280;38141;42.666;23.344;2023-04-03T00:06:31;94048.56;;;8.71;100.00
3178;BME280;38141;42.666;23.344;2023-04-03T00:09:00;94048.53;;;8.68;100.00
3178;BME280;38141;42.666;23.344;2023-04-03T00:11:27;94038.53;;;8.68;100.00
3178;BME280;38141;42.666;23.344;2023-04-03T00:13:55;94043.91;;;8.54;100.00
3178;BME280;38141;42.666;23.344;2023-04-03T00:16:22;94040.09;;;8.48;100.00
3178;BME280;38141;42.666;23.344;2023-04-03T00:18:48;94023.91;;;8.34;100.00
3178;BME280;38141;42.666;23.344;2023-04-03T00:21:15;94030.78;;;8.28;100.00
3178;BME280;38141;42.666;23.344;2023-04-03T00:23:42;94034.22;;;8.14;100.00
3178;BME280;38141;42.666;23.344;2023-04-03T00:26:09;94029.63;;;8.11;100.00
3178;BME280;38141;42.666;23.344;2023-04-03T00:28:36;94019.19;;;7.95;100.00
3178;BME280;38141;42.666;23.344;2023-04-03T00:31:04;94024.19;;;7.97;100.00
3178;BME280;38141;42.666;23.344;2023-04-03T00:33:31;94034.19;;;8.00;100.00
3178;BME280;38141;42.666;23.344;2023-04-03T00:35:58;94027.22;;;7.81;100.00
3178;BME280;38141;42.666;23.344;2023-04-03T00:38:25;94028.75;;;7.79;100.00
3178;BME280;38141;42.666;23.344;2023-04-03T00:40:52;94039.16;;;7.84;100.00
3178;BME280;38141;42.666;23.344;2023-04-03T00:43:20;94029.13;;;7.67;100.00
3178;BME280;38141;42.666;23.344;2023-04-03T00:45:49;94036.06;;;7.71;100.00
3178;BME280;38141;42.666;23.344;2023-04-03T00:48:20;94048.31;;;7.58;100.00
3178;BME280;38141;42.666;23.344;2023-04-03T00:50:48;94044.13;;;7.71;100.00
3178;BME280;38141;42.666;23.344;2023-04-03T00:53:18;94033.06;;;8.04;100.00
3178;BME280;38141;42.666;23.344;2023-04-03T00:55:47;94037.66;;;7.90;100.00
3178;BME280;38141;42.666;23.344;2023-04-03T00:58:15;94033.00;;;7.80;100.00
3178;BME280;38141;42.666;23.344;2023-04-03T01:00:48;94039.13;;;7.70;100.00
3178;BME280;38141;42.666;23.344;2023-04-03T01:03:18;94047.84;;;7.38;100.00
3178;BME280;38141;42.666;23.344;2023-04-03T01:05:45;94032.06;;;7.33;100.00
3178;BME280;38141;42.666;23.344;2023-04-03T01:08:12;94050.47;;;7.28;100.00
3178;BME280;38141;42.666;23.344;2023-04-03T01:10:39;94051.31;;;7.46;100.00
3178;BME280;38141;42.666;23.344;2023-04-03T01:13:19;94039.69;;;7.24;100.00
3178;BME280;38141;42.666;23.344;2023-04-03T01:15:47;94052.50;;;7.45;100.00
3178;BME280;38141;42.666;23.344;2023-04-03T01:18:13;94041.34;;;7.46;100.00
3178;BME280;38141;42.666;23.344;2023-04-03T01:21:00;94046.34;;;7.44;100.00
3178;BME280;38141;42.666;23.344;2023-04-03T01:23:42;94043.66;;;7.48;100.00
3178;BME280;38141;42.666;23.344;2023-04-03T01:26:14;94043.22;;;7.35;100.00
3178;BME280;38141;42.666;23.344;2023-04-03T01:28:41;94033.56;;;7.27;100.00
3178;BME280;38141;42.666;23.344;2023-04-03T01:31:13;94040.41;;;7.14;100.00
3178;BME280;38141;42.666;23.344;2023-04-03T01:33:43;94043.00;;;6.96;100.00
3178;BME280;38141;42.666;23.344;2023-04-03T01:36:14;94034.81;;;6.79;100.00
3178;BME280;38141;42.666;23.344;2023-04-03T01:38:41;94040.97;;;6.83;100.00
3178;BME280;38141;42.666;23.344;2023-04-03T01:41:08;94048.31;;;6.86;100.00
3178;BME280;38141;42.666;23.344;2023-04-03T01:43:35;94046.69;;;6.74;100.00
3178;BME280;38141;42.666;23.344;2023-04-03T01:46:02;94039.75;;;6.73;100.00
3178;BME280;38141;42.666;23.344;2023-04-03T01:48:29;94037.41;;;6.64;100.00
3178;BME280;38141;42.666;23.344;2023-04-03T01:50:57;94038.94;;;6.65;100.00
3178;BME280;38141;42.666;23.344;2023-04-03T01:53:24;94048.59;;;6.70;100.00
3178;BME280;38141;42.666;23.344;2023-04-03T01:55:51;94027.28;;;6.47;100.00
3178;BME280;38141;42.666;23.344;2023-04-03T01:58:18;94040.53;;;6.70;100.00
3178;BME280;38141;42.666;23.344;2023-04-03T02:00:44;94056.06;;;6.94;100.00
3178;BME280;38141;42.666;23.344;2023-04-03T02:03:11;94030.72;;;6.99;100.00
3178;BME280;38141;42.666;23.344;2023-04-03T02:05:38;94029.19;;;7.01;100.00
3178;BME280;38141;42.666;23.344;2023-04-03T02:08:06;93948.97;;;6.42;100.00
3178;BME280;38141;42.666;23.344;2023-04-03T02:10:33;93968.94;;;6.44;100.00
3178;BME280;38141;42.666;23.344;2023-04-03T02:13:00;94047.88;;;6.77;100.00
3178;BME280;38141;42.666;23.344;2023-04-03T02:15:27;94035.94;;;6.74;100.00
3178;BME280;38141;42.666;23.344;2023-04-03T02:17:54;94064.81;;;6.84;100.00
3178;BME280;38141;42.666;23.344;2023-04-03T02:20:21;94048.22;;;6.72;100.00
3178;BME280;38141;42.666;23.344;2023-04-03T02:22:48;94059.81;;;6.86;100.00
3178;BME280;38141;42.666;23.344;2023-04-03T02:25:16;94034.84;;;6.82;100.00
3178;BME280;38141;42.666;23.344;2023-04-03T02:27:44;94022.56;;;6.85;100.00
3178;BME280;38141;42.666;23.344;2023-04-03T02:30:11;94034.53;;;6.94;100.00
3178;BME280;38141;42.666;23.344;2023-04-03T02:32:39;94044.13;;;6.95;100.00
3178;BME280;38141;42.666;23.344;2023-04-03T02:35:07;94024.47;;;6.81;100.00
3178;BME280;38141;42.666;23.344;2023-04-03T02:37:34;94034.50;;;6.91;100.00
3178;BME280;38141;42.666;23.344;2023-04-03T02:40:01;94034.47;;;6.84;100.00
3178;BME280;38141;42.666;23.344;2023-04-03T02:42:29;94027.84;;;6.70;100.00
3178;BME280;38141;42.666;23.344;2023-04-03T02:44:56;94038.34;;;6.90;100.00
3178;BME280;38141;42.666;23.344;2023-04-03T02:47:22;94043.72;;;6.90;100.00
3178;BME280;38141;42.666;23.344;2023-04-03T02:49:49;94033.44;;;7.06;100.00
3178;BME280;38141;42.666;23.344;2023-04-03T02:52:18;94034.25;;;7.10;100.00
3178;BME280;38141;42.666;23.344;2023-04-03T02:54:44;94023.78;;;6.94;100.00
3178;BME280;38141;42.666;23.344;2023-04-03T02:57:11;94001.75;;;6.67;100.00
3178;BME280;38141;42.666;23.344;2023-04-03T02:59:39;94005.22;;;6.72;100.00
3178;BME280;38141;42.666;23.344;2023-04-03T03:02:06;94013.28;;;6.72;100.00
3178;BME280;38141;42.666;23.344;2023-04-03T03:04:33;94001.66;;;6.60;100.00
3178;BME280;38141;42.666;23.344;2023-04-03T03:07:00;94012.63;;;6.92;100.00
3178;BME280;38141;42.666;23.344;2023-04-03T03:09:27;94007.56;;;6.80;100.00
3178;BME280;38141;42.666;23.344;2023-04-03T03:11:54;94006.38;;;6.74;100.00
3178;BME280;38141;42.666;23.344;2023-04-03T03:14:21;94015.53;;;6.66;100.00
3178;BME280;38141;42.666;23.344;2023-04-03T03:16:49;94010.50;;;6.57;100.00
3178;BME280;38141;42.666;23.344;2023-04-03T03:19:16;94004.69;;;6.52;100.00
3178;BME280;38141;42.666;23.344;2023-04-03T03:21:43;94015.53;;;6.62;100.00
3178;BME280;38141;42.666;23.344;2023-04-03T03:24:10;94011.25;;;6.58;100.00
3178;BME280;38141;42.666;23.344;2023-04-03T03:26:37;94003.53;;;6.49;100.00
3178;BME280;38141;42.666;23.344;2023-04-03T03:29:04;94014.63;;;6.44;100.00
3178;BME280;38141;42.666;23.344;2023-04-03T03:31:30;94011.19;;;6.51;100.00
3178;BME280;38141;42.666;23.344;2023-04-03T03:33:59;93989.34;;;6.52;100.00
3178;BME280;38141;42.666;23.344;2023-04-03T03:36:25;94006.25;;;6.56;100.00
3178;BME280;38141;42.666;23.344;2023-04-03T03:38:52;94017.72;;;6.50;100.00
3178;BME280;38141;42.666;23.344;2023-04-03T03:41:19;94013.09;;;6.50;100.00
3178;BME280;38141;42.666;23.344;2023-04-03T03:43:46;94015.78;;;6.50;100.00
3178;BME280;38141;42.666;23.344;2023-04-03T03:46:12;94015.03;;;6.50;100.00
3178;BME280;38141;42.666;23.344;2023-04-03T03:48:39;94011.94;;;6.44;100.00
3178;BME280;38141;42.666;23.344;2023-04-03T03:51:07;93998.31;;;6.23;100.00
3178;BME280;38141;42.666;23.344;2023-04-03T03:53:34;94009.09;;;6.27;100.00
3178;BME280;38141;42.666;23.344;2023-04-03T03:56:01;94019.41;;;6.21;100.00
3178;BME280;38141;42.666;23.344;2023-04-03T03:58:28;94010.47;;;6.10;100.00
3178;BME280;38141;42.666;23.344;2023-04-03T04:00:55;94017.09;;;6.23;100.00
3178;BME280;38141;42.666;23.344;2023-04-03T04:03:22;94016.78;;;6.28;100.00
3178;BME280;38141;42.666;23.344;2023-04-03T04:05:48;94022.88;;;6.21;100.00
3178;BME280;38141;42.666;23.344;2023-04-03T04:08:17;94024.00;;;6.20;100.00
3178;BME280;38141;42.666;23.344;2023-04-03T04:10:43;94018.94;;;6.12;100.00
3178;BME280;38141;42.666;23.344;2023-04-03T04:13:10;94015.53;;;6.18;100.00
3178;BME280;38141;42.666;23.344;2023-04-03T04:15:37;94018.63;;;6.17;100.00
3178;BME280;38141;42.666;23.344;2023-04-03T04:18:03;94026.75;;;6.28;100.00
3178;BME280;38141;42.666;23.344;2023-04-03T04:20:30;94036.31;;;6.25;100.00
3178;BME280;38141;42.666;23.344;2023-04-03T04:22:57;94024.91;;;6.35;100.00
3178;BME280;38141;42.666;23.344;2023-04-03T04:25:25;94027.84;;;6.23;100.00
3178;BME280;38141;42.666;23.344;2023-04-03T04:27:52;94029.13;;;6.36;100.00
3178;BME280;38141;42.666;23.344;2023-04-03T04:30:19;94028.84;;;6.48;100.00
3178;BME280;38141;42.666;23.344;2023-04-03T04:32:45;94029.56;;;6.45;100.00
3178;BME280;38141;42.666;23.344;2023-04-03T04:35:12;94022.75;;;6.55;100.00
3178;BME280;38141;42.666;23.344;2023-04-03T04:37:41;94036.16;;;6.55;100.00
3178;BME280;38141;42.666;23.344;2023-04-03T04:40:08;94047.25;;;6.46;100.00
3178;BME280;38141;42.666;23.344;2023-04-03T04:42:37;94052.50;;;6.32;100.00
3178;BME280;38141;42.666;23.344;2023-04-03T04:45:05;94044.47;;;6.36;100.00
3178;BME280;38141;42.666;23.344;2023-04-03T04:47:32;94020.53;;;6.20;100.00
3178;BME280;38141;42.666;23.344;2023-04-03T04:49:59;94040.28;;;6.42;100.00
3178;BME280;38141;42.666;23.344;2023-04-03T04:52:26;94047.69;;;6.52;100.00
3178;BME280;38141;42.666;23.344;2023-04-03T04:54:53;94060.09;;;6.67;100.00
3178;BME280;38141;42.666;23.344;2023-04-03T04:57:19;94027.75;;;6.56;100.00
3178;BME280;38141;42.666;23.344;2023-04-03T04:59:48;94038.97;;;6.69;100.00
3178;BME280;38141;42.666;23.344;2023-04-03T05:02:14;94057.97;;;6.97;100.00
3178;BME280;38141;42.666;23.344;2023-04-03T05:04:41;94062.22;;;6.95;100.00
3178;BME280;38141;42.666;23.344;2023-04-03T05:07:08;94063.78;;;7.03;100.00
3178;BME280;38141;42.666;23.344;2023-04-03T05:09:35;94077.69;;;7.15;100.00
3178;BME280;38141;42.666;23.344;2023-04-03T05:12:02;94086.88;;;7.11;100.00
3178;BME280;38141;42.666;23.344;2023-04-03T05:14:29;94091.44;;;7.03;100.00
3178;BME280;38141;42.666;23.344;2023-04-03T05:16:57;94085.75;;;7.15;100.00
3178;BME280;38141;42.666;23.344;2023-04-03T05:19:24;94089.66;;;7.25;100.00
3178;BME280;38141;42.666;23.344;2023-04-03T05:21:51;94082.03;;;7.38;100.00
3178;BME280;38141;42.666;23.344;2023-04-03T05:24:18;94093.28;;;7.54;100.00
3178;BME280;38141;42.666;23.344;2023-04-03T05:26:44;94086.78;;;7.58;100.00
3178;BME280;38141;42.666;23.344;2023-04-03T05:29:11;94081.84;;;7.82;100.00
3178;BME280;38141;42.666;23.344;2023-04-03T05:31:38;94074.22;;;7.98;100.00
3178;BME280;38141;42.666;23.344;2023-04-03T05:34:06;94081.19;;;8.27;100.00
3178;BME280;38141;42.666;23.344;2023-04-03T05:36:33;94075.09;;;8.59;100.00
3178;BME280;38141;42.666;23.344;2023-04-03T05:39:00;94063.59;;;8.76;100.00
3178;BME280;38141;42.666;23.344;2023-04-03T05:41:27;94072.44;;;8.94;100.00
3178;BME280;38141;42.666;23.344;2023-04-03T05:43:54;94067.78;;;9.02;100.00
3178;BME280;38141;42.666;23.344;2023-04-03T05:46:21;94062.44;;;8.80;100.00
3178;BME280;38141;42.666;23.344;2023-04-03T05:48:48;94079.00;;;8.89;100.00
3178;BME280;38141;42.666;23.344;2023-04-03T05:51:18;94053.16;;;8.78;100.00
3178;BME280;38141;42.666;23.344;2023-04-03T05:53:47;94062.78;;;8.97;100.00
3178;BME280;38141;42.666;23.344;2023-04-03T05:56:14;94065.81;;;9.23;100.00
3178;BME280;38141;42.666;23.344;2023-04-03T05:58:41;94058.84;;;9.44;100.00
3178;BME280;38141;42.666;23.344;2023-04-03T06:01:07;94056.53;;;9.42;100.00
3178;BME280;38141;42.666;23.344;2023-04-03T06:03:34;94063.09;;;9.48;100.00
3178;BME280;38141;42.666;23.344;2023-04-03T06:06:03;94050.78;;;9.40;100.00
3178;BME280;38141;42.666;23.344;2023-04-03T06:08:31;94057.16;;;9.85;100.00
3178;BME280;38141;42.666;23.344;2023-04-03T06:10:59;94055.22;;;9.89;100.00
3178;BME280;38141;42.666;23.344;2023-04-03T06:13:27;94035.66;;;9.50;100.00
3178;BME280;38141;42.666;23.344;2023-04-03T06:15:54;94017.94;;;9.52;100.00
3178;BME280;38141;42.666;23.344;2023-04-03T06:18:21;94043.47;;;9.30;100.00
3178;BME280;38141;42.666;23.344;2023-04-03T06:20:48;94022.66;;;9.20;100.00
3178;BME280;38141;42.666;23.344;2023-04-03T06:23:15;94044.56;;;9.54;100.00
3178;BME280;38141;42.666;23.344;2023-04-03T06:25:44;94043.22;;;9.94;100.00
3178;BME280;38141;42.666;23.344;2023-04-03T06:28:11;94033.13;;;10.08;100.00
3178;BME280;38141;42.666;23.344;2023-04-03T06:30:38;94033.47;;;10.17;100.00
3178;BME280;38141;42.666;23.344;2023-04-03T06:33:05;93972.91;;;10.08;100.00
3178;BME280;38141;42.666;23.344;2023-04-03T06:35:32;94055.03;;;10.83;100.00
3178;BME280;38141;42.666;23.344;2023-04-03T06:38:00;94074.19;;;10.99;92.56
3178;BME280;38141;42.666;23.344;2023-04-03T06:40:29;94078.69;;;11.20;89.21
3178;BME280;38141;42.666;23.344;2023-04-03T06:42:57;94084.91;;;11.17;88.86
3178;BME280;38141;42.666;23.344;2023-04-03T06:45:24;94069.84;;;11.53;84.02
3178;BME280;38141;42.666;23.344;2023-04-03T06:47:51;94035.78;;;11.15;85.47
3178;BME280;38141;42.666;23.344;2023-04-03T06:50:21;94065.19;;;11.17;86.08
3178;BME280;38141;42.666;23.344;2023-04-03T06:52:51;94011.25;;;10.92;85.04
3178;BME280;38141;42.666;23.344;2023-04-03T06:55:19;93969.06;;;10.57;83.32
3178;BME280;38141;42.666;23.344;2023-04-03T06:57:46;94004.72;;;10.86;84.44
3178;BME280;38141;42.666;23.344;2023-04-03T07:00:16;93979.31;;;10.80;80.34
3178;BME280;38141;42.666;23.344;2023-04-03T07:02:43;93974.91;;;11.30;77.93
3178;BME280;38141;42.666;23.344;2023-04-03T07:05:09;93987.72;;;11.26;77.92
3178;BME280;38141;42.666;23.344;2023-04-03T07:07:39;93999.97;;;11.72;74.68
3178;BME280;38141;42.666;23.344;2023-04-03T07:10:09;93996.81;;;11.77;73.12
3178;BME280;38141;42.666;23.344;2023-04-03T07:12:40;94084.88;;;12.26;72.97
3178;BME280;38141;42.666;23.344;2023-04-03T07:15:08;93981.78;;;12.02;72.18
3178;BME280;38141;42.666;23.344;2023-04-03T07:17:36;93998.25;;;12.42;72.59
3178;BME280;38141;42.666;23.344;2023-04-03T07:20:04;93992.63;;;12.29;72.42
3178;BME280;38141;42.666;23.344;2023-04-03T07:22:35;94003.41;;;12.33;70.52
3178;BME280;38141;42.666;23.344;2023-04-03T07:25:02;93959.56;;;12.38;69.61
3178;BME280;38141;42.666;23.344;2023-04-03T07:27:30;94038.91;;;12.69;70.68
3178;BME280;38141;42.666;23.344;2023-04-03T07:29:57;93976.94;;;12.40;68.90
3178;BME280;38141;42.666;23.344;2023-04-03T07:32:24;94027.56;;;13.24;66.91
3178;BME280;38141;42.666;23.344;2023-04-03T07:34:52;94020.41;;;13.10;67.75
3178;BME280;38141;42.666;23.344;2023-04-03T07:37:19;94035.47;;;13.15;67.56
3178;BME280;38141;42.666;23.344;2023-04-03T07:39:48;94041.75;;;13.12;66.72
3178;BME280;38141;42.666;23.344;2023-04-03T07:42:16;94030.38;;;13.60;64.84
3178;BME280;38141;42.666;23.344;2023-04-03T07:44:43;94028.38;;;12.98;67.36
3178;BME280;38141;42.666;23.344;2023-04-03T07:47:17;94030.63;;;12.79;69.31
3178;BME280;38141;42.666;23.344;2023-04-03T07:49:43;94021.59;;;12.63;69.25
3178;BME280;38141;42.666;23.344;2023-04-03T07:52:11;93997.03;;;12.70;68.64
3178;BME280;38141;42.666;23.344;2023-04-03T07:54:46;94028.69;;;13.03;67.50
3178;BME280;38141;42.666;23.344;2023-04-03T07:57:13;94030.16;;;13.08;68.62
3178;BME280;38141;42.666;23.344;2023-04-03T07:59:40;94019.75;;;13.03;67.09
3178;BME280;38141;42.666;23.344;2023-04-03T08:02:09;94019.28;;;13.08;65.93
3178;BME280;38141;42.666;23.344;2023-04-03T08:04:36;94017.31;;;13.08;65.33
3178;BME280;38141;42.666;23.344;2023-04-03T08:07:03;94019.28;;;12.84;67.26
3178;BME280;38141;42.666;23.344;2023-04-03T08:09:31;93992.53;;;11.79;71.36
3178;BME280;38141;42.666;23.344;2023-04-03T08:11:58;94029.38;;;12.34;71.22
3178;BME280;38141;42.666;23.344;2023-04-03T08:14:25;94008.13;;;12.29;71.09
3178;BME280;38141;42.666;23.344;2023-04-03T08:16:53;94014.25;;;12.33;71.88
3178;BME280;38141;42.666;23.344;2023-04-03T08:19:21;94016.66;;;12.54;71.03
3178;BME280;38141;42.666;23.344;2023-04-03T08:21:48;94018.53;;;12.34;73.10
3178;BME280;38141;42.666;23.344;2023-04-03T08:24:15;94015.16;;;12.49;71.33
3178;BME280;38141;42.666;23.344;2023-04-03T08:26:44;93994.16;;;12.30;72.26
3178;BME280;38141;42.666;23.344;2023-04-03T08:29:10;94016.66;;;12.54;72.39
3178;BME280;38141;42.666;23.344;2023-04-03T08:31:37;94012.31;;;12.60;72.06
3178;BME280;38141;42.666;23.344;2023-04-03T08:34:04;93993.41;;;13.00;68.27
3178;BME280;38141;42.666;23.344;2023-04-03T08:36:31;94006.63;;;13.44;65.38
3178;BME280;38141;42.666;23.344;2023-04-03T08:38:59;93969.94;;;13.13;66.38
3178;BME280;38141;42.666;23.344;2023-04-03T08:41:31;93991.59;;;13.40;65.65
3178;BME280;38141;42.666;23.344;2023-04-03T08:44:19;93998.28;;;13.74;64.45
3178;BME280;38141;42.666;23.344;2023-04-03T08:46:58;93986.00;;;13.47;64.35
3178;BME280;38141;42.666;23.344;2023-04-03T08:49:30;93994.50;;;13.68;63.06
3178;BME280;38141;42.666;23.344;2023-04-03T08:51:59;93981.88;;;13.58;63.39
3178;BME280;38141;42.666;23.344;2023-04-03T08:54:30;93971.53;;;13.53;63.25
3178;BME280;38141;42.666;23.344;2023-04-03T08:57:02;93979.34;;;14.07;62.90
3178;BME280;38141;42.666;23.344;2023-04-03T08:59:41;93972.06;;;13.64;63.86
3178;BME280;38141;42.666;23.344;2023-04-03T09:02:21;93974.09;;;13.80;63.65
3178;BME280;38141;42.666;23.344;2023-04-03T09:04:49;93982.69;;;13.95;63.10
3178;BME280;38141;42.666;23.344;2023-04-03T09:07:22;93970.91;;;14.37;61.41
3178;BME280;38141;42.666;23.344;2023-04-03T09:09:52;93964.81;;;14.65;59.53
3178;BME280;38141;42.666;23.344;2023-04-03T09:12:22;93968.28;;;14.98;73.34
3178;BME280;38141;42.666;23.344;2023-04-03T09:14:59;93950.34;;;14.85;65.85
3178;BME280;38141;42.666;23.344;2023-04-03T09:17:37;93943.50;;;14.77;60.63
3178;BME280;38141;42.666;23.344;2023-04-03T09:20:17;93959.53;;;15.20;60.60
3178;BME280;38141;42.666;23.344;2023-04-03T09:22:50;93961.47;;;15.35;59.80
3178;BME280;38141;42.666;23.344;2023-04-03T09:25:20;93950.50;;;15.23;58.83
3178;BME280;38141;42.666;23.344;2023-04-03T09:27:48;93946.56;;;15.40;58.95
3178;BME280;38141;42.666;23.344;2023-04-03T09:30:19;93929.19;;;15.34;56.85
3178;BME280;38141;42.666;23.344;2023-04-03T09:32:48;93942.47;;;15.32;56.37
3178;BME280;38141;42.666;23.344;2023-04-03T09:35:24;93930.91;;;15.28;56.60
3178;BME280;38141;42.666;23.344;2023-04-03T09:37:53;93949.56;;;15.29;56.58
3178;BME280;38141;42.666;23.344;2023-04-03T09:40:34;93937.78;;;15.03;57.31
3178;BME280;38141;42.666;23.344;2023-04-03T09:43:23;93937.53;;;14.98;56.63
3178;BME280;38141;42.666;23.344;2023-04-03T09:45:52;93941.03;;;14.98;56.71
3178;BME280;38141;42.666;23.344;2023-04-03T09:48:21;93914.84;;;14.88;56.92
3178;BME280;38141;42.666;23.344;2023-04-03T09:51:00;93928.97;;;14.83;56.77
3178;BME280;38141;42.666;23.344;2023-04-03T09:53:32;93929.41;;;14.49;55.67
3178;BME280;38141;42.666;23.344;2023-04-03T09:56:02;93930.78;;;14.57;56.69
3178;BME280;38141;42.666;23.344;2023-04-03T09:58:31;93884.66;;;14.50;57.52
3178;BME280;38141;42.666;23.344;2023-04-03T10:01:01;93914.69;;;14.63;56.81
3178;BME280;38141;42.666;23.344;2023-04-03T10:03:31;93918.09;;;14.51;56.77
3178;BME280;38141;42.666;23.344;2023-04-03T10:06:00;93918.25;;;14.76;57.72
3178;BME280;38141;42.666;23.344;2023-04-03T10:08:29;93914.44;;;14.57;57.96
3178;BME280;38141;42.666;23.344;2023-04-03T10:11:14;93913.34;;;14.39;59.29
3178;BME280;38141;42.666;23.344;2023-04-03T10:14:00;93923.72;;;14.44;59.22
3178;BME280;38141;42.666;23.344;2023-04-03T10:16:35;93920.38;;;14.36;60.02
3178;BME280;38141;42.666;23.344;2023-04-03T10:19:30;93923.06;;;14.04;60.61
3178;BME280;38141;42.666;23.344;2023-04-03T10:22:02;93903.25;;;13.67;62.45
3178;BME280;38141;42.666;23.344;2023-04-03T10:24:36;93900.41;;;13.74;62.28
3178;BME280;38141;42.666;23.344;2023-04-03T10:27:12;93898.94;;;14.06;62.50
3178;BME280;38141;42.666;23.344;2023-04-03T10:29:46;93894.25;;;14.06;60.99
3178;BME280;38141;42.666;23.344;2023-04-03T10:32:30;93899.47;;;13.81;61.34
3178;BME280;38141;42.666;23.344;2023-04-03T10:35:03;93887.13;;;13.60;60.89
3178;BME280;38141;42.666;23.344;2023-04-03T10:37:42;93895.28;;;13.60;61.42
3178;BME280;38141;42.666;23.344;2023-04-03T10:40:22;93884.09;;;13.74;60.47
3178;BME280;38141;42.666;23.344;2023-04-03T10:42:53;93876.75;;;13.35;60.01
3178;BME280;38141;42.666;23.344;2023-04-03T10:45:29;93873.84;;;13.46;60.55
3178;BME280;38141;42.666;23.344;2023-04-03T10:48:10;93881.53;;;13.67;59.82
3178;BME280;38141;42.666;23.344;2023-04-03T10:50:48;93758.84;;;12.77;59.22
3178;BME280;38141;42.666;23.344;2023-04-03T10:53:26;93808.53;;;12.74;60.09
3178;BME280;38141;42.666;23.344;2023-04-03T10:56:04;93754.91;;;12.62;60.83
3178;BME280;38141;42.666;23.344;2023-04-03T10:58:49;93763.72;;;12.86;59.97
3178;BME280;38141;42.666;23.344;2023-04-03T11:01:25;93736.59;;;12.46;60.54
3178;BME280;38141;42.666;23.344;2023-04-03T11:04:16;93836.94;;;12.89;61.20
3178;BME280;38141;42.666;23.344;2023-04-03T11:06:53;93779.88;;;12.73;62.26
3178;BME280;38141;42.666;23.344;2023-04-03T11:09:31;93890.63;;;13.41;64.38
3178;BME280;38141;42.666;23.344;2023-04-03T11:12:09;93847.75;;;12.27;65.84
3178;BME280;38141;42.666;23.344;2023-04-03T11:14:40;93798.97;;;11.80;69.18
3178;BME280;38141;42.666;23.344;2023-04-03T11:17:19;93887.94;;;12.78;71.82
3178;BME280;38141;42.666;23.344;2023-04-03T11:19:55;93876.53;;;12.67;74.09
3178;BME280;38141;42.666;23.344;2023-04-03T11:22:27;93900.50;;;12.69;80.42
3178;BME280;38141;42.666;23.344;2023-04-03T11:25:02;93890.56;;;12.39;83.40
3178;BME280;38141;42.666;23.344;2023-04-03T11:27:35;93867.47;;;12.31;92.35
3178;BME280;38141;42.666;23.344;2023-04-03T11:30:07;93878.25;;;12.11;94.71
3178;BME280;38141;42.666;23.344;2023-04-03T11:32:50;93890.91;;;12.18;100.00
3178;BME280;38141;42.666;23.344;2023-04-03T11:35:21;93881.78;;;11.81;100.00
3178;BME280;38141;42.666;23.344;2023-04-03T11:37:52;93875.66;;;11.77;100.00
3178;BME280;38141;42.666;23.344;2023-04-03T11:40:23;93852.50;;;11.73;100.00
3178;BME280;38141;42.666;23.344;2023-04-03T11:42:55;93844.97;;;11.57;100.00
3178;BME280;38141;42.666;23.344;2023-04-03T11:45:35;93887.25;;;11.78;100.00
3178;BME280;38141;42.666;23.344;2023-04-03T11:48:04;93897.69;;;11.79;100.00
3178;BME280;38141;42.666;23.344;2023-04-03T11:50:44;93884.19;;;11.45;100.00
3178;BME280;38141;42.666;23.344;2023-04-03T11:53:33;93856.72;;;11.17;100.00
3178;BME280;38141;42.666;23.344;2023-04-03T11:56:03;93894.63;;;11.17;100.00
3178;BME280;38141;42.666;23.344;2023-04-03T11:58:32;93903.19;;;11.11;100.00
3178;BME280;38141;42.666;23.344;2023-04-03T12:01:05;93854.13;;;10.76;100.00
3178;BME280;38141;42.666;23.344;2023-04-03T12:10:12;93911.84;;;10.62;100.00
3178;BME280;38141;42.666;23.344;2023-04-03T12:12:41;93904.91;;;10.61;100.00
3178;BME280;38141;42.666;23.344;2023-04-03T12:15:47;93901.66;;;10.73;100.00
3178;BME280;38141;42.666;23.344;2023-04-03T12:18:43;93897.13;;;10.63;100.00
3178;BME280;38141;42.666;23.344;2023-04-03T12:21:11;93898.34;;;10.58;100.00
3178;BME280;38141;42.666;23.344;2023-04-03T12:23:58;93888.28;;;10.62;100.00
3178;BME280;38141;42.666;23.344;2023-04-03T12:26:30;93870.25;;;10.49;100.00
3178;BME280;38141;42.666;23.344;2023-04-03T12:28:58;93889.06;;;10.59;100.00
3178;BME280;38141;42.666;23.344;2023-04-03T12:31:40;93862.66;;;10.33;100.00
3178;BME280;38141;42.666;23.344;2023-04-03T12:34:24;93881.66;;;10.26;100.00
3178;BME280;38141;42.666;23.344;2023-04-03T12:36:59;93888.50;;;10.38;100.00
3178;BME280;38141;42.666;23.344;2023-04-03T12:39:54;93866.66;;;10.21;100.00
3178;BME280;38141;42.666;23.344;2023-04-03T12:42:41;93866.47;;;10.39;100.00
3178;BME280;38141;42.666;23.344;2023-04-03T12:45:17;93853.41;;;10.34;100.00
3178;BME280;38141;42.666;23.344;2023-04-03T12:47:48;93825.00;;;10.15;100.00
3178;BME280;38141;42.666;23.344;2023-04-03T12:50:21;93835.72;;;10.22;100.00
3178;BME280;38141;42.666;23.344;2023-04-03T12:52:56;93852.59;;;10.37;100.00
3178;BME280;38141;42.666;23.344;2023-04-03T12:55:24;93844.81;;;10.43;100.00
3178;BME280;38141;42.666;23.344;2023-04-03T12:57:53;93845.97;;;10.42;100.00
3178;BME280;38141;42.666;23.344;2023-04-03T13:00:35;93847.72;;;10.21;100.00
3178;BME280;38141;42.666;23.344;2023-04-03T13:03:05;93835.56;;;10.40;100.00
3178;BME280;38141;42.666;23.344;2023-04-03T13:05:33;93849.31;;;10.15;100.00
3178;BME280;38141;42.666;23.344;2023-04-03T13:08:03;93852.03;;;10.15;100.00
3178;BME280;38141;42.666;23.344;2023-04-03T13:10:32;93851.59;;;10.13;100.00
3178;BME280;38141;42.666;23.344;2023-04-03T13:13:09;93855.38;;;10.30;100.00
3178;BME280;38141;42.666;23.344;2023-04-03T13:15:42;93832.78;;;10.06;100.00
3178;BME280;38141;42.666;23.344;2023-04-03T13:18:22;93815.09;;;9.98;100.00
3178;BME280;38141;42.666;23.344;2023-04-03T13:20:50;93856.81;;;9.94;100.00
3178;BME280;38141;42.666;23.344;2023-04-03T13:23:18;93845.34;;;9.79;100.00